sensor_id;sensor_type;location;lat;lon;timestamp;P1;durP1;ratioP1;P2;durP2;ratioP2
37431;SDS011;23292;51.300;6.252;2022-12-29T00:01:58;1.92;;;0.90;;
37431;SDS011;23292;51.300;6.252;2022-12-29T00:04:25;3.25;;;0.90;;
37431;SDS011;23292;51.300;6.252;2022-12-29T00:06:52;3.65;;;0.82;;
37431;SDS011;23292;51.300;6.252;2022-12-29T00:09:20;2.35;;;0.90;;
37431;SDS011;23292;51.300;6.252;2022-12-29T00:11:47;1.38;;;0.73;;
37431;SDS011;23292;51.300;6.252;2022-12-29T00:14:16;1.98;;;0.90;;
37431;SDS011;23292;51.300;6.252;2022-12-29T00:17:01;1.77;;;0.73;;
37431;SDS011;23292;51.300;6.252;2022-12-29T00:19:28;1.00;;;0.73;;
37431;SDS011;23292;51.300;6.252;2022-12-29T00:22:14;2.47;;;0.75;;
37431;SDS011;23292;51.300;6.252;2022-12-29T00:25:00;1.55;;;0.70;;
37431;SDS011;23292;51.300;6.252;2022-12-29T00:27:28;1.70;;;0.88;;
37431;SDS011;23292;51.300;6.252;2022-12-29T00:30:15;2.03;;;0.90;;
37431;SDS011;23292;51.300;6.252;2022-12-29T00:33:15;2.03;;;0.90;;
37431;SDS011;23292;51.300;6.252;2022-12-29T00:38:38;3.08;;;1.00;;
37431;SDS011;23292;51.300;6.252;2022-12-29T00:41:27;1.98;;;0.80;;
37431;SDS011;23292;51.300;6.252;2022-12-29T00:44:13;1.95;;;1.02;;
37431;SDS011;23292;51.300;6.252;2022-12-29T00:46:40;2.25;;;1.00;;
37431;SDS011;23292;51.300;6.252;2022-12-29T00:49:09;2.38;;;0.95;;
37431;SDS011;23292;51.300;6.252;2022-12-29T00:51:57;2.78;;;0.90;;
37431;SDS011;23292;51.300;6.252;2022-12-29T00:54:33;1.58;;;0.70;;
37431;SDS011;23292;51.300;6.252;2022-12-29T00:57:02;1.90;;;0.93;;
37431;SDS011;23292;51.300;6.252;2022-12-29T00:59:30;2.78;;;0.95;;
37431;SDS011;23292;51.300;6.252;2022-12-29T01:01:57;3.03;;;0.88;;
37431;SDS011;23292;51.300;6.252;2022-12-29T01:04:24;1.73;;;0.75;;
37431;SDS011;23292;51.300;6.252;2022-12-29T01:06:52;2.10;;;0.70;;
37431;SDS011;23292;51.300;6.252;2022-12-29T01:09:19;2.13;;;1.00;;
37431;SDS011;23292;51.300;6.252;2022-12-29T01:12:05;1.48;;;0.80;;
37431;SDS011;23292;51.300;6.252;2022-12-29T01:14:33;5.05;;;1.10;;
37431;SDS011;23292;51.300;6.252;2022-12-29T01:17:01;1.13;;;0.60;;
37431;SDS011;23292;51.300;6.252;2022-12-29T01:19:28;3.40;;;0.73;;
37431;SDS011;23292;51.300;6.252;2022-12-29T01:21:55;1.10;;;0.50;;
37431;SDS011;23292;51.300;6.252;2022-12-29T01:24:22;2.53;;;0.77;;
37431;SDS011;23292;51.300;6.252;2022-12-29T01:26:49;2.65;;;0.80;;
37431;SDS011;23292;51.300;6.252;2022-12-29T01:29:15;1.88;;;0.75;;
37431;SDS011;23292;51.300;6.252;2022-12-29T01:31:44;1.38;;;0.60;;
37431;SDS011;23292;51.300;6.252;2022-12-29T01:34:11;1.52;;;0.77;;
37431;SDS011;23292;51.300;6.252;2022-12-29T01:36:39;2.97;;;0.70;;
37431;SDS011;23292;51.300;6.252;2022-12-29T01:39:06;1.88;;;0.70;;
37431;SDS011;23292;51.300;6.252;2022-12-29T01:41:32;1.45;;;0.50;;
37431;SDS011;23292;51.300;6.252;2022-12-29T01:44:00;2.65;;;1.00;;
37431;SDS011;23292;51.300;6.252;2022-12-29T01:46:29;5.25;;;2.05;;
37431;SDS011;23292;51.300;6.252;2022-12-29T01:49:02;1.27;;;0.50;;
37431;SDS011;23292;51.300;6.252;2022-12-29T01:54:17;2.03;;;0.63;;
37431;SDS011;23292;51.300;6.252;2022-12-29T01:59:15;1.95;;;0.73;;
37431;SDS011;23292;51.300;6.252;2022-12-29T02:01:47;3.80;;;0.80;;
37431;SDS011;23292;51.300;6.252;2022-12-29T02:04:14;2.85;;;0.80;;
37431;SDS011;23292;51.300;6.252;2022-12-29T02:06:48;3.72;;;0.68;;
37431;SDS011;23292;51.300;6.252;2022-12-29T02:09:18;2.90;;;0.75;;
37431;SDS011;23292;51.300;6.252;2022-12-29T02:11:49;3.47;;;0.80;;
37431;SDS011;23292;51.300;6.252;2022-12-29T02:14:16;6.90;;;1.10;;
37431;SDS011;23292;51.300;6.252;2022-12-29T02:19:47;1.92;;;0.73;;
37431;SDS011;23292;51.300;6.252;2022-12-29T02:30:36;2.22;;;0.88;;
37431;SDS011;23292;51.300;6.252;2022-12-29T02:38:59;3.38;;;1.00;;
37431;SDS011;23292;51.300;6.252;2022-12-29T02:44:13;5.05;;;1.27;;
37431;SDS011;23292;51.300;6.252;2022-12-29T02:47:04;5.80;;;1.23;;
37431;SDS011;23292;51.300;6.252;2022-12-29T02:49:48;3.80;;;1.00;;
37431;SDS011;23292;51.300;6.252;2022-12-29T02:52:27;2.85;;;0.73;;
37431;SDS011;23292;51.300;6.252;2022-12-29T02:55:00;7.68;;;0.90;;
37431;SDS011;23292;51.300;6.252;2022-12-29T02:57:29;4.30;;;0.88;;
37431;SDS011;23292;51.300;6.252;2022-12-29T03:18:56;4.30;;;1.35;;
37431;SDS011;23292;51.300;6.252;2022-12-29T03:24:32;3.95;;;0.90;;
37431;SDS011;23292;51.300;6.252;2022-12-29T03:27:02;3.22;;;0.60;;
37431;SDS011;23292;51.300;6.252;2022-12-29T03:29:38;6.63;;;1.00;;
37431;SDS011;23292;51.300;6.252;2022-12-29T03:32:08;2.85;;;1.00;;
37431;SDS011;23292;51.300;6.252;2022-12-29T03:34:37;2.13;;;0.90;;
37431;SDS011;23292;51.300;6.252;2022-12-29T03:37:09;3.92;;;0.75;;
37431;SDS011;23292;51.300;6.252;2022-12-29T03:39:41;4.63;;;0.95;;
37431;SDS011;23292;51.300;6.252;2022-12-29T03:42:11;2.83;;;0.90;;
37431;SDS011;23292;51.300;6.252;2022-12-29T03:44:46;1.98;;;0.80;;
37431;SDS011;23292;51.300;6.252;2022-12-29T03:47:14;3.58;;;1.02;;
37431;SDS011;23292;51.300;6.252;2022-12-29T03:49:43;3.03;;;0.80;;
37431;SDS011;23292;51.300;6.252;2022-12-29T03:52:11;2.40;;;0.80;;
37431;SDS011;23292;51.300;6.252;2022-12-29T03:54:41;1.33;;;0.63;;
37431;SDS011;23292;51.300;6.252;2022-12-29T03:57:09;8.30;;;0.80;;
37431;SDS011;23292;51.300;6.252;2022-12-29T03:59:55;4.65;;;1.10;;
37431;SDS011;23292;51.300;6.252;2022-12-29T04:02:22;2.83;;;0.55;;
37431;SDS011;23292;51.300;6.252;2022-12-29T04:04:51;3.33;;;0.80;;
37431;SDS011;23292;51.300;6.252;2022-12-29T04:07:18;2.13;;;0.70;;
37431;SDS011;23292;51.300;6.252;2022-12-29T04:09:45;7.80;;;1.02;;
37431;SDS011;23292;51.300;6.252;2022-12-29T04:12:17;2.17;;;0.63;;
37431;SDS011;23292;51.300;6.252;2022-12-29T04:14:44;2.78;;;0.90;;
37431;SDS011;23292;51.300;6.252;2022-12-29T04:17:11;3.45;;;0.82;;
37431;SDS011;23292;51.300;6.252;2022-12-29T04:19:39;1.90;;;0.65;;
37431;SDS011;23292;51.300;6.252;2022-12-29T04:22:06;3.35;;;0.70;;
37431;SDS011;23292;51.300;6.252;2022-12-29T04:24:33;3.47;;;0.70;;
37431;SDS011;23292;51.300;6.252;2022-12-29T04:27:01;3.70;;;0.80;;
37431;SDS011;23292;51.300;6.252;2022-12-29T04:32:39;2.83;;;0.65;;
37431;SDS011;23292;51.300;6.252;2022-12-29T04:35:07;2.75;;;0.80;;
37431;SDS011;23292;51.300;6.252;2022-12-29T04:37:34;2.58;;;0.70;;
37431;SDS011;23292;51.300;6.252;2022-12-29T04:40:01;2.28;;;0.63;;
37431;SDS011;23292;51.300;6.252;2022-12-29T04:42:29;2.42;;;0.60;;
37431;SDS011;23292;51.300;6.252;2022-12-29T04:44:55;1.40;;;0.63;;
37431;SDS011;23292;51.300;6.252;2022-12-29T04:47:52;3.38;;;0.70;;
37431;SDS011;23292;51.300;6.252;2022-12-29T04:50:27;4.22;;;0.55;;
37431;SDS011;23292;51.300;6.252;2022-12-29T04:53:12;2.92;;;0.75;;
37431;SDS011;23292;51.300;6.252;2022-12-29T04:55:41;3.03;;;0.82;;
37431;SDS011;23292;51.300;6.252;2022-12-29T04:58:08;3.22;;;0.50;;
37431;SDS011;23292;51.300;6.252;2022-12-29T05:00:35;1.70;;;0.52;;
37431;SDS011;23292;51.300;6.252;2022-12-29T05:03:02;5.68;;;1.10;;
37431;SDS011;23292;51.300;6.252;2022-12-29T05:05:29;2.63;;;0.63;;
37431;SDS011;23292;51.300;6.252;2022-12-29T05:07:57;3.55;;;0.85;;
37431;SDS011;23292;51.300;6.252;2022-12-29T05:10:24;3.08;;;0.60;;
37431;SDS011;23292;51.300;6.252;2022-12-29T05:12:53;2.75;;;0.68;;
37431;SDS011;23292;51.300;6.252;2022-12-29T05:15:20;5.32;;;1.13;;
37431;SDS011;23292;51.300;6.252;2022-12-29T05:17:46;2.53;;;0.43;;
37431;SDS011;23292;51.300;6.252;2022-12-29T05:20:13;5.13;;;0.90;;
37431;SDS011;23292;51.300;6.252;2022-12-29T05:22:41;3.85;;;0.60;;
37431;SDS011;23292;51.300;6.252;2022-12-29T05:25:08;5.45;;;0.90;;
37431;SDS011;23292;51.300;6.252;2022-12-29T05:27:48;5.68;;;0.80;;
37431;SDS011;23292;51.300;6.252;2022-12-29T05:30:26;2.70;;;0.60;;
37431;SDS011;23292;51.300;6.252;2022-12-29T05:32:53;3.72;;;0.70;;
37431;SDS011;23292;51.300;6.252;2022-12-29T05:35:20;3.88;;;0.70;;
37431;SDS011;23292;51.300;6.252;2022-12-29T05:37:47;6.97;;;1.88;;
37431;SDS011;23292;51.300;6.252;2022-12-29T05:40:14;3.10;;;1.02;;
37431;SDS011;23292;51.300;6.252;2022-12-29T05:42:43;3.15;;;0.50;;
37431;SDS011;23292;51.300;6.252;2022-12-29T05:45:23;4.13;;;0.80;;
37431;SDS011;23292;51.300;6.252;2022-12-29T05:47:54;5.13;;;0.70;;
37431;SDS011;23292;51.300;6.252;2022-12-29T05:50:40;2.78;;;0.60;;
37431;SDS011;23292;51.300;6.252;2022-12-29T05:53:07;1.48;;;0.55;;
37431;SDS011;23292;51.300;6.252;2022-12-29T05:55:36;3.97;;;0.98;;
37431;SDS011;23292;51.300;6.252;2022-12-29T05:58:06;5.95;;;0.88;;
37431;SDS011;23292;51.300;6.252;2022-12-29T06:00:33;2.53;;;0.60;;
37431;SDS011;23292;51.300;6.252;2022-12-29T06:03:00;2.63;;;0.60;;
37431;SDS011;23292;51.300;6.252;2022-12-29T06:05:27;4.75;;;0.77;;
37431;SDS011;23292;51.300;6.252;2022-12-29T06:07:53;3.20;;;0.63;;
37431;SDS011;23292;51.300;6.252;2022-12-29T06:10:21;3.95;;;0.70;;
37431;SDS011;23292;51.300;6.252;2022-12-29T06:13:08;4.32;;;0.82;;
37431;SDS011;23292;51.300;6.252;2022-12-29T06:15:39;4.30;;;0.88;;
37431;SDS011;23292;51.300;6.252;2022-12-29T06:18:07;3.40;;;1.00;;
37431;SDS011;23292;51.300;6.252;2022-12-29T06:20:43;3.35;;;0.80;;
37431;SDS011;23292;51.300;6.252;2022-12-29T06:23:09;5.63;;;1.05;;
37431;SDS011;23292;51.300;6.252;2022-12-29T06:25:38;3.08;;;0.70;;
37431;SDS011;23292;51.300;6.252;2022-12-29T06:28:05;4.72;;;0.90;;
37431;SDS011;23292;51.300;6.252;2022-12-29T06:30:32;4.10;;;0.90;;
37431;SDS011;23292;51.300;6.252;2022-12-29T06:33:00;3.92;;;0.85;;
37431;SDS011;23292;51.300;6.252;2022-12-29T06:35:27;5.05;;;1.02;;
37431;SDS011;23292;51.300;6.252;2022-12-29T06:37:54;6.32;;;1.10;;
37431;SDS011;23292;51.300;6.252;2022-12-29T06:40:21;4.97;;;0.98;;
37431;SDS011;23292;51.300;6.252;2022-12-29T06:43:09;3.95;;;1.00;;
37431;SDS011;23292;51.300;6.252;2022-12-29T06:45:54;3.47;;;1.05;;
37431;SDS011;23292;51.300;6.252;2022-12-29T06:48:21;5.43;;;0.95;;
37431;SDS011;23292;51.300;6.252;2022-12-29T06:50:48;4.65;;;0.93;;
37431;SDS011;23292;51.300;6.252;2022-12-29T06:53:14;5.35;;;1.00;;
37431;SDS011;23292;51.300;6.252;2022-12-29T06:55:41;3.63;;;0.85;;
37431;SDS011;23292;51.300;6.252;2022-12-29T06:58:08;3.88;;;0.88;;
37431;SDS011;23292;51.300;6.252;2022-12-29T07:00:35;8.00;;;1.30;;
37431;SDS011;23292;51.300;6.252;2022-12-29T07:03:02;4.72;;;0.95;;
37431;SDS011;23292;51.300;6.252;2022-12-29T07:05:29;4.88;;;1.10;;
37431;SDS011;23292;51.300;6.252;2022-12-29T07:07:57;7.35;;;0.77;;
37431;SDS011;23292;51.300;6.252;2022-12-29T07:10:24;5.43;;;1.00;;
37431;SDS011;23292;51.300;6.252;2022-12-29T07:12:51;6.45;;;1.20;;
37431;SDS011;23292;51.300;6.252;2022-12-29T07:15:18;9.07;;;1.20;;
37431;SDS011;23292;51.300;6.252;2022-12-29T07:17:44;6.22;;;1.25;;
37431;SDS011;23292;51.300;6.252;2022-12-29T07:20:11;8.20;;;1.20;;
37431;SDS011;23292;51.300;6.252;2022-12-29T07:22:38;5.40;;;1.25;;
37431;SDS011;23292;51.300;6.252;2022-12-29T07:25:05;11.05;;;1.55;;
37431;SDS011;23292;51.300;6.252;2022-12-29T07:27:32;6.53;;;1.00;;
37431;SDS011;23292;51.300;6.252;2022-12-29T07:29:59;7.45;;;0.95;;
37431;SDS011;23292;51.300;6.252;2022-12-29T07:32:26;6.10;;;1.10;;
37431;SDS011;23292;51.300;6.252;2022-12-29T07:34:53;7.70;;;1.13;;
37431;SDS011;23292;51.300;6.252;2022-12-29T07:37:19;11.35;;;1.20;;
37431;SDS011;23292;51.300;6.252;2022-12-29T07:39:46;7.57;;;1.30;;
37431;SDS011;23292;51.300;6.252;2022-12-29T07:42:13;7.43;;;1.20;;
37431;SDS011;23292;51.300;6.252;2022-12-29T07:44:42;6.43;;;1.00;;
37431;SDS011;23292;51.300;6.252;2022-12-29T07:47:15;10.35;;;2.25;;
37431;SDS011;23292;51.300;6.252;2022-12-29T07:49:42;9.82;;;1.50;;
37431;SDS011;23292;51.300;6.252;2022-12-29T07:52:09;7.53;;;1.20;;
37431;SDS011;23292;51.300;6.252;2022-12-29T07:54:35;8.05;;;1.80;;
37431;SDS011;23292;51.300;6.252;2022-12-29T07:57:02;8.30;;;1.50;;
37431;SDS011;23292;51.300;6.252;2022-12-29T07:59:30;6.40;;;1.10;;
37431;SDS011;23292;51.300;6.252;2022-12-29T08:01:58;10.00;;;1.67;;
37431;SDS011;23292;51.300;6.252;2022-12-29T08:04:25;6.00;;;1.08;;
37431;SDS011;23292;51.300;6.252;2022-12-29T08:06:51;9.07;;;1.17;;
37431;SDS011;23292;51.300;6.252;2022-12-29T08:09:18;6.47;;;1.40;;
37431;SDS011;23292;51.300;6.252;2022-12-29T08:11:49;8.88;;;1.50;;
37431;SDS011;23292;51.300;6.252;2022-12-29T08:14:16;10.13;;;1.27;;
37431;SDS011;23292;51.300;6.252;2022-12-29T08:16:44;6.75;;;1.58;;
37431;SDS011;23292;51.300;6.252;2022-12-29T08:19:11;12.80;;;1.38;;
37431;SDS011;23292;51.300;6.252;2022-12-29T08:21:38;11.23;;;1.85;;
37431;SDS011;23292;51.300;6.252;2022-12-29T08:24:06;7.15;;;1.52;;
37431;SDS011;23292;51.300;6.252;2022-12-29T08:26:34;10.40;;;1.77;;
37431;SDS011;23292;51.300;6.252;2022-12-29T08:29:00;7.40;;;2.13;;
37431;SDS011;23292;51.300;6.252;2022-12-29T08:31:27;10.23;;;1.50;;
37431;SDS011;23292;51.300;6.252;2022-12-29T08:33:54;6.55;;;1.42;;
37431;SDS011;23292;51.300;6.252;2022-12-29T08:36:21;8.27;;;1.35;;
37431;SDS011;23292;51.300;6.252;2022-12-29T08:38:48;7.07;;;1.48;;
37431;SDS011;23292;51.300;6.252;2022-12-29T08:41:15;5.03;;;0.93;;
37431;SDS011;23292;51.300;6.252;2022-12-29T08:43:45;9.70;;;2.10;;
37431;SDS011;23292;51.300;6.252;2022-12-29T08:46:13;8.00;;;1.17;;
37431;SDS011;23292;51.300;6.252;2022-12-29T08:48:40;9.98;;;1.45;;
37431;SDS011;23292;51.300;6.252;2022-12-29T08:51:07;10.18;;;1.70;;
37431;SDS011;23292;51.300;6.252;2022-12-29T08:53:34;6.72;;;1.40;;
37431;SDS011;23292;51.300;6.252;2022-12-29T08:56:01;8.70;;;1.58;;
37431;SDS011;23292;51.300;6.252;2022-12-29T08:58:39;7.05;;;1.30;;
37431;SDS011;23292;51.300;6.252;2022-12-29T09:01:06;7.90;;;1.23;;
37431;SDS011;23292;51.300;6.252;2022-12-29T09:03:33;8.00;;;2.65;;
37431;SDS011;23292;51.300;6.252;2022-12-29T09:06:20;6.15;;;1.10;;
37431;SDS011;23292;51.300;6.252;2022-12-29T09:08:51;15.20;;;1.77;;
37431;SDS011;23292;51.300;6.252;2022-12-29T09:11:33;12.38;;;1.50;;
37431;SDS011;23292;51.300;6.252;2022-12-29T09:14:26;14.63;;;1.92;;
37431;SDS011;23292;51.300;6.252;2022-12-29T09:20:38;8.93;;;1.77;;
37431;SDS011;23292;51.300;6.252;2022-12-29T09:27:20;9.60;;;1.25;;
37431;SDS011;23292;51.300;6.252;2022-12-29T09:31:28;12.00;;;1.95;;
37431;SDS011;23292;51.300;6.252;2022-12-29T09:34:30;7.72;;;1.42;;
37431;SDS011;23292;51.300;6.252;2022-12-29T09:36:56;11.18;;;1.40;;
37431;SDS011;23292;51.300;6.252;2022-12-29T09:39:23;9.75;;;1.52;;
37431;SDS011;23292;51.300;6.252;2022-12-29T09:44:31;8.73;;;1.65;;
37431;SDS011;23292;51.300;6.252;2022-12-29T09:47:23;7.00;;;1.45;;
37431;SDS011;23292;51.300;6.252;2022-12-29T10:00:50;8.85;;;1.58;;
37431;SDS011;23292;51.300;6.252;2022-12-29T10:03:47;19.17;;;2.13;;
37431;SDS011;23292;51.300;6.252;2022-12-29T10:06:23;8.63;;;1.48;;
37431;SDS011;23292;51.300;6.252;2022-12-29T10:18:03;11.02;;;1.98;;
37431;SDS011;23292;51.300;6.252;2022-12-29T10:23:27;12.48;;;1.70;;
37431;SDS011;23292;51.300;6.252;2022-12-29T10:25:58;10.65;;;1.40;;
37431;SDS011;23292;51.300;6.252;2022-12-29T10:28:33;8.02;;;1.50;;
37431;SDS011;23292;51.300;6.252;2022-12-29T10:31:09;8.73;;;1.45;;
37431;SDS011;23292;51.300;6.252;2022-12-29T10:33:53;6.93;;;1.27;;
37431;SDS011;23292;51.300;6.252;2022-12-29T10:36:33;8.32;;;1.50;;
37431;SDS011;23292;51.300;6.252;2022-12-29T10:39:14;8.18;;;1.70;;
37431;SDS011;23292;51.300;6.252;2022-12-29T10:42:09;10.43;;;1.60;;
37431;SDS011;23292;51.300;6.252;2022-12-29T10:44:45;9.80;;;1.70;;
37431;SDS011;23292;51.300;6.252;2022-12-29T10:47:20;7.65;;;2.40;;
37431;SDS011;23292;51.300;6.252;2022-12-29T10:49:52;9.43;;;1.33;;
37431;SDS011;23292;51.300;6.252;2022-12-29T10:52:19;13.00;;;2.00;;
37431;SDS011;23292;51.300;6.252;2022-12-29T10:57:41;14.30;;;2.08;;
37431;SDS011;23292;51.300;6.252;2022-12-29T11:00:17;12.43;;;1.50;;
37431;SDS011;23292;51.300;6.252;2022-12-29T11:02:55;10.80;;;2.03;;
37431;SDS011;23292;51.300;6.252;2022-12-29T11:05:52;15.75;;;2.20;;
37431;SDS011;23292;51.300;6.252;2022-12-29T11:08:25;7.53;;;1.40;;
37431;SDS011;23292;51.300;6.252;2022-12-29T11:11:03;7.32;;;1.40;;
37431;SDS011;23292;51.300;6.252;2022-12-29T11:13:32;15.68;;;2.15;;
37431;SDS011;23292;51.300;6.252;2022-12-29T11:16:04;9.98;;;1.52;;
37431;SDS011;23292;51.300;6.252;2022-12-29T11:18:35;11.55;;;2.03;;
37431;SDS011;23292;51.300;6.252;2022-12-29T11:21:23;8.38;;;1.67;;
37431;SDS011;23292;51.300;6.252;2022-12-29T11:24:03;10.23;;;1.98;;
37431;SDS011;23292;51.300;6.252;2022-12-29T11:26:32;12.48;;;1.70;;
37431;SDS011;23292;51.300;6.252;2022-12-29T11:34:22;11.50;;;2.00;;
37431;SDS011;23292;51.300;6.252;2022-12-29T11:36:53;10.95;;;2.10;;
37431;SDS011;23292;51.300;6.252;2022-12-29T11:41:54;12.18;;;2.03;;
37431;SDS011;23292;51.300;6.252;2022-12-29T11:44:21;13.45;;;1.98;;
37431;SDS011;23292;51.300;6.252;2022-12-29T11:46:49;13.00;;;2.38;;
37431;SDS011;23292;51.300;6.252;2022-12-29T11:49:19;8.00;;;1.77;;
37431;SDS011;23292;51.300;6.252;2022-12-29T11:51:49;9.75;;;2.45;;
37431;SDS011;23292;51.300;6.252;2022-12-29T11:54:18;11.23;;;1.70;;
37431;SDS011;23292;51.300;6.252;2022-12-29T11:56:49;14.70;;;2.00;;
37431;SDS011;23292;51.300;6.252;2022-12-29T12:01:53;17.02;;;1.88;;
37431;SDS011;23292;51.300;6.252;2022-12-29T12:04:21;12.48;;;1.77;;
37431;SDS011;23292;51.300;6.252;2022-12-29T12:09:35;8.90;;;1.80;;
37431;SDS011;23292;51.300;6.252;2022-12-29T12:12:20;11.15;;;2.08;;
37431;SDS011;23292;51.300;6.252;2022-12-29T12:14:59;7.90;;;1.30;;
37431;SDS011;23292;51.300;6.252;2022-12-29T12:17:52;9.68;;;1.63;;
37431;SDS011;23292;51.300;6.252;2022-12-29T12:26:04;11.13;;;2.25;;
37431;SDS011;23292;51.300;6.252;2022-12-29T12:28:54;8.35;;;1.80;;
37431;SDS011;23292;51.300;6.252;2022-12-29T12:34:09;11.02;;;1.80;;
37431;SDS011;23292;51.300;6.252;2022-12-29T12:39:38;10.65;;;1.77;;
37431;SDS011;23292;51.300;6.252;2022-12-29T12:45:45;13.93;;;1.88;;
37431;SDS011;23292;51.300;6.252;2022-12-29T12:57:09;7.95;;;1.73;;
37431;SDS011;23292;51.300;6.252;2022-12-29T13:05:47;8.50;;;1.80;;
37431;SDS011;23292;51.300;6.252;2022-12-29T13:11:53;13.60;;;2.58;;
37431;SDS011;23292;51.300;6.252;2022-12-29T13:14:45;11.57;;;1.60;;
37431;SDS011;23292;51.300;6.252;2022-12-29T13:37:24;6.13;;;1.60;;
37431;SDS011;23292;51.300;6.252;2022-12-29T13:39:55;7.67;;;1.53;;
37431;SDS011;23292;51.300;6.252;2022-12-29T13:42:25;7.13;;;2.17;;
37431;SDS011;23292;51.300;6.252;2022-12-29T13:44:54;7.65;;;1.45;;
37431;SDS011;23292;51.300;6.252;2022-12-29T13:47:36;7.55;;;1.35;;
37431;SDS011;23292;51.300;6.252;2022-12-29T13:50:15;9.73;;;1.83;;
37431;SDS011;23292;51.300;6.252;2022-12-29T13:55:37;10.70;;;1.75;;
37431;SDS011;23292;51.300;6.252;2022-12-29T13:58:20;9.75;;;1.75;;
37431;SDS011;23292;51.300;6.252;2022-12-29T14:01:19;9.38;;;1.52;;
37431;SDS011;23292;51.300;6.252;2022-12-29T14:08:59;12.30;;;1.73;;
37431;SDS011;23292;51.300;6.252;2022-12-29T14:11:32;7.38;;;1.13;;
37431;SDS011;23292;51.300;6.252;2022-12-29T14:14:22;9.13;;;1.92;;
37431;SDS011;23292;51.300;6.252;2022-12-29T14:16:53;6.75;;;1.80;;
37431;SDS011;23292;51.300;6.252;2022-12-29T14:19:23;10.73;;;2.38;;
37431;SDS011;23292;51.300;6.252;2022-12-29T14:21:54;13.93;;;2.38;;
37431;SDS011;23292;51.300;6.252;2022-12-29T14:35:00;8.30;;;1.38;;
37431;SDS011;23292;51.300;6.252;2022-12-29T14:38:13;10.82;;;2.00;;
37431;SDS011;23292;51.300;6.252;2022-12-29T14:41:17;8.55;;;1.70;;
37431;SDS011;23292;51.300;6.252;2022-12-29T14:44:16;6.82;;;1.65;;
37431;SDS011;23292;51.300;6.252;2022-12-29T14:46:46;11.20;;;1.42;;
37431;SDS011;23292;51.300;6.252;2022-12-29T14:49:21;9.82;;;2.13;;
37431;SDS011;23292;51.300;6.252;2022-12-29T14:51:51;7.53;;;1.52;;
37431;SDS011;23292;51.300;6.252;2022-12-29T14:57:00;12.30;;;1.90;;
37431;SDS011;23292;51.300;6.252;2022-12-29T14:59:30;10.35;;;2.10;;
37431;SDS011;23292;51.300;6.252;2022-12-29T15:02:00;13.07;;;2.95;;
37431;SDS011;23292;51.300;6.252;2022-12-29T15:04:30;9.43;;;1.65;;
37431;SDS011;23292;51.300;6.252;2022-12-29T15:06:59;10.82;;;1.88;;
37431;SDS011;23292;51.300;6.252;2022-12-29T15:09:31;7.43;;;1.30;;
37431;SDS011;23292;51.300;6.252;2022-12-29T15:14:48;11.48;;;1.58;;
37431;SDS011;23292;51.300;6.252;2022-12-29T15:17:38;10.63;;;2.35;;
37431;SDS011;23292;51.300;6.252;2022-12-29T15:23:02;10.18;;;1.75;;
37431;SDS011;23292;51.300;6.252;2022-12-29T15:25:35;8.40;;;1.50;;
37431;SDS011;23292;51.300;6.252;2022-12-29T15:28:03;8.05;;;1.13;;
37431;SDS011;23292;51.300;6.252;2022-12-29T15:30:32;7.05;;;1.40;;
37431;SDS011;23292;51.300;6.252;2022-12-29T15:33:00;10.10;;;1.60;;
37431;SDS011;23292;51.300;6.252;2022-12-29T15:35:36;9.77;;;1.80;;
37431;SDS011;23292;51.300;6.252;2022-12-29T15:38:16;8.50;;;1.55;;
37431;SDS011;23292;51.300;6.252;2022-12-29T15:41:00;9.40;;;1.65;;
37431;SDS011;23292;51.300;6.252;2022-12-29T15:46:12;9.73;;;1.70;;
37431;SDS011;23292;51.300;6.252;2022-12-29T15:48:40;9.75;;;1.50;;
37431;SDS011;23292;51.300;6.252;2022-12-29T15:51:14;10.98;;;1.95;;
37431;SDS011;23292;51.300;6.252;2022-12-29T15:53:48;10.82;;;2.13;;
37431;SDS011;23292;51.300;6.252;2022-12-29T15:56:16;13.48;;;2.50;;
37431;SDS011;23292;51.300;6.252;2022-12-29T15:58:45;11.27;;;2.10;;
37431;SDS011;23292;51.300;6.252;2022-12-29T16:01:18;10.60;;;1.73;;
37431;SDS011;23292;51.300;6.252;2022-12-29T16:04:01;9.05;;;1.77;;
37431;SDS011;23292;51.300;6.252;2022-12-29T16:06:32;15.13;;;2.05;;
37431;SDS011;23292;51.300;6.252;2022-12-29T16:11:34;9.85;;;2.20;;
37431;SDS011;23292;51.300;6.252;2022-12-29T16:14:08;8.98;;;1.55;;
37431;SDS011;23292;51.300;6.252;2022-12-29T16:16:39;10.02;;;2.08;;
37431;SDS011;23292;51.300;6.252;2022-12-29T16:19:19;11.20;;;2.33;;
37431;SDS011;23292;51.300;6.252;2022-12-29T16:21:50;11.07;;;1.90;;
37431;SDS011;23292;51.300;6.252;2022-12-29T16:24:19;12.05;;;2.15;;
37431;SDS011;23292;51.300;6.252;2022-12-29T16:26:58;10.00;;;2.60;;
37431;SDS011;23292;51.300;6.252;2022-12-29T16:29:29;14.60;;;2.50;;
37431;SDS011;23292;51.300;6.252;2022-12-29T16:31:58;12.75;;;2.40;;
37431;SDS011;23292;51.300;6.252;2022-12-29T16:34:32;8.68;;;1.40;;
37431;SDS011;23292;51.300;6.252;2022-12-29T16:37:27;3.60;;;0.80;;
37431;SDS011;23292;51.300;6.252;2022-12-29T16:39:55;7.63;;;1.52;;
37431;SDS011;23292;51.300;6.252;2022-12-29T16:42:36;4.78;;;0.90;;
37431;SDS011;23292;51.300;6.252;2022-12-29T16:50:36;5.90;;;1.05;;
37431;SDS011;23292;51.300;6.252;2022-12-29T16:53:05;7.40;;;1.10;;
37431;SDS011;23292;51.300;6.252;2022-12-29T16:55:45;5.82;;;1.08;;
37431;SDS011;23292;51.300;6.252;2022-12-29T16:58:16;9.45;;;3.40;;
37431;SDS011;23292;51.300;6.252;2022-12-29T17:00:48;10.10;;;1.50;;
37431;SDS011;23292;51.300;6.252;2022-12-29T17:03:15;4.60;;;1.27;;
37431;SDS011;23292;51.300;6.252;2022-12-29T17:05:42;3.13;;;0.90;;
37431;SDS011;23292;51.300;6.252;2022-12-29T17:08:19;6.43;;;2.03;;
37431;SDS011;23292;51.300;6.252;2022-12-29T17:10:49;4.72;;;0.90;;
37431;SDS011;23292;51.300;6.252;2022-12-29T17:13:36;5.57;;;1.40;;
37431;SDS011;23292;51.300;6.252;2022-12-29T17:16:04;5.50;;;0.82;;
37431;SDS011;23292;51.300;6.252;2022-12-29T17:18:33;4.88;;;1.58;;
37431;SDS011;23292;51.300;6.252;2022-12-29T17:21:00;7.55;;;1.67;;
37431;SDS011;23292;51.300;6.252;2022-12-29T17:23:27;10.45;;;1.50;;
37431;SDS011;23292;51.300;6.252;2022-12-29T17:25:56;4.55;;;1.20;;
37431;SDS011;23292;51.300;6.252;2022-12-29T17:28:24;7.47;;;1.15;;
37431;SDS011;23292;51.300;6.252;2022-12-29T17:30:55;5.68;;;0.98;;
37431;SDS011;23292;51.300;6.252;2022-12-29T17:33:33;5.25;;;1.00;;
37431;SDS011;23292;51.300;6.252;2022-12-29T17:36:02;7.43;;;1.10;;
37431;SDS011;23292;51.300;6.252;2022-12-29T17:38:30;5.18;;;1.35;;
37431;SDS011;23292;51.300;6.252;2022-12-29T17:40:59;3.38;;;1.00;;
37431;SDS011;23292;51.300;6.252;2022-12-29T17:43:26;3.85;;;1.15;;
37431;SDS011;23292;51.300;6.252;2022-12-29T17:46:02;7.75;;;1.20;;
37431;SDS011;23292;51.300;6.252;2022-12-29T17:48:32;5.07;;;1.45;;
37431;SDS011;23292;51.300;6.252;2022-12-29T17:50:58;8.23;;;1.60;;
37431;SDS011;23292;51.300;6.252;2022-12-29T17:53:27;5.28;;;1.50;;
37431;SDS011;23292;51.300;6.252;2022-12-29T17:55:55;8.48;;;1.85;;
37431;SDS011;23292;51.300;6.252;2022-12-29T17:58:23;8.25;;;1.70;;
37431;SDS011;23292;51.300;6.252;2022-12-29T18:00:52;10.82;;;1.73;;
37431;SDS011;23292;51.300;6.252;2022-12-29T18:03:23;9.70;;;1.80;;
37431;SDS011;23292;51.300;6.252;2022-12-29T18:05:55;8.90;;;1.65;;
37431;SDS011;23292;51.300;6.252;2022-12-29T18:08:22;8.35;;;1.95;;
37431;SDS011;23292;51.300;6.252;2022-12-29T18:10:50;8.57;;;1.98;;
37431;SDS011;23292;51.300;6.252;2022-12-29T18:13:20;15.18;;;2.83;;
37431;SDS011;23292;51.300;6.252;2022-12-29T18:16:04;12.65;;;2.90;;
37431;SDS011;23292;51.300;6.252;2022-12-29T18:18:31;11.77;;;2.47;;
37431;SDS011;23292;51.300;6.252;2022-12-29T18:20:58;12.75;;;2.45;;
37431;SDS011;23292;51.300;6.252;2022-12-29T18:23:26;13.45;;;2.70;;
37431;SDS011;23292;51.300;6.252;2022-12-29T18:26:01;16.67;;;2.22;;
37431;SDS011;23292;51.300;6.252;2022-12-29T18:28:36;15.18;;;2.60;;
37431;SDS011;23292;51.300;6.252;2022-12-29T18:31:05;11.50;;;2.88;;